MAT039 ESSA-EFHK
Flight info
| Callsign | MAT039 |
|---|---|
| Flight time | 0h 44m |
| Altitude | 31000 |
| Route | TOVRI N851 RIKUM DCT RIRIP Y364 LAKUT |
| Aircraft | A319/M-SDE3FGHIRWY/LB1 |
Departure
| Time | 2026-04-22 14:21 |
|---|---|
| Airport | Stockholm-Arlanda Airport (ESSA) |
Arrival
| Time | 2026-04-22 15:06 |
|---|---|
| Airport | Helsinki Vantaa Airport (EFHK) |
| Time | Latitude | Longitude | Altitude | Speed | Heading |
|---|---|---|---|---|---|
| 2026-04-22 13:51 | 59.64721 | 17.92677 | 116 ft | 0 kts | 28° |
| 2026-04-22 14:12 | 59.64720 | 17.92676 | 116 ft | 2 kts | 28° |
| 2026-04-22 14:12 | 59.64704 | 17.92659 | 113 ft | 3 kts | 28° |
| 2026-04-22 14:13 | 59.64687 | 17.92641 | 114 ft | 3 kts | 9° |
| 2026-04-22 14:13 | 59.64667 | 17.92644 | 114 ft | 3 kts | 323° |
| 2026-04-22 14:13 | 59.64661 | 17.92652 | 112 ft | 0 kts | 306° |
| 2026-04-22 14:15 | 59.64661 | 17.92653 | 112 ft | 0 kts | 306° |
| 2026-04-22 14:15 | 59.64662 | 17.92651 | 112 ft | 2 kts | 306° |
| 2026-04-22 14:16 | 59.64668 | 17.92595 | 113 ft | 5 kts | 278° |
| 2026-04-22 14:16 | 59.64672 | 17.92545 | 115 ft | 6 kts | 280° |
| 2026-04-22 14:16 | 59.64689 | 17.92466 | 115 ft | 8 kts | 295° |
| 2026-04-22 14:16 | 59.64719 | 17.92302 | 115 ft | 15 kts | 288° |
| 2026-04-22 14:17 | 59.64744 | 17.92100 | 115 ft | 14 kts | 257° |
| 2026-04-22 14:17 | 59.64666 | 17.92030 | 115 ft | 13 kts | 196° |
| 2026-04-22 14:17 | 59.64573 | 17.91987 | 114 ft | 13 kts | 190° |
| 2026-04-22 14:17 | 59.64481 | 17.91957 | 113 ft | 14 kts | 187° |
| 2026-04-22 14:18 | 59.64371 | 17.91916 | 113 ft | 20 kts | 191° |
| 2026-04-22 14:18 | 59.64231 | 17.91866 | 112 ft | 21 kts | 190° |
| 2026-04-22 14:18 | 59.64086 | 17.91814 | 111 ft | 22 kts | 190° |
| 2026-04-22 14:18 | 59.63934 | 17.91760 | 110 ft | 22 kts | 190° |
| 2026-04-22 14:19 | 59.63810 | 17.91618 | 110 ft | 21 kts | 262° |
| 2026-04-22 14:19 | 59.63809 | 17.91578 | 110 ft | 0 kts | 266° |
| 2026-04-22 14:19 | 59.63792 | 17.91556 | 109 ft | 11 kts | 211° |
| 2026-04-22 14:19 | 59.63748 | 17.91388 | 109 ft | 15 kts | 300° |
| 2026-04-22 14:20 | 59.63970 | 17.91412 | 111 ft | 36 kts | 11° |
| 2026-04-22 14:20 | 59.64484 | 17.91596 | 113 ft | 111 kts | 10° |
| 2026-04-22 14:20 | 59.65450 | 17.91948 | 224 ft | 156 kts | 5° |
| 2026-04-22 14:21 | 59.67525 | 17.92821 | 1747 ft | 153 kts | 8° |
| 2026-04-22 14:21 | 59.68573 | 17.93248 | 2528 ft | 152 kts | 5° |
| 2026-04-22 14:22 | 59.70798 | 17.93984 | 3688 ft | 173 kts | 5° |
| 2026-04-22 14:22 | 59.72037 | 17.94614 | 4098 ft | 198 kts | 19° |
| 2026-04-22 14:22 | 59.73878 | 17.99440 | 5076 ft | 263 kts | 76° |
| 2026-04-22 14:23 | 59.73989 | 18.03171 | 5966 ft | 273 kts | 82° |
| 2026-04-22 14:23 | 59.74053 | 18.07065 | 6954 ft | 278 kts | 82° |
| 2026-04-22 14:23 | 59.74106 | 18.10903 | 7871 ft | 283 kts | 81° |
| 2026-04-22 14:23 | 59.74140 | 18.13354 | 8446 ft | 287 kts | 81° |
| 2026-04-22 14:24 | 59.74193 | 18.17315 | 9336 ft | 292 kts | 80° |
| 2026-04-22 14:24 | 59.74251 | 18.21499 | 10229 ft | 297 kts | 79° |
| 2026-04-22 14:24 | 59.74312 | 18.25687 | 11102 ft | 300 kts | 80° |
| 2026-04-22 14:24 | 59.74371 | 18.29822 | 11986 ft | 302 kts | 80° |
| 2026-04-22 14:25 | 59.74436 | 18.34162 | 12499 ft | 320 kts | 80° |
| 2026-04-22 14:25 | 59.74510 | 18.38711 | 12805 ft | 341 kts | 81° |
| 2026-04-22 14:25 | 59.74589 | 18.43568 | 13027 ft | 363 kts | 81° |
| 2026-04-22 14:25 | 59.74667 | 18.48696 | 13184 ft | 385 kts | 82° |
| 2026-04-22 14:26 | 59.74741 | 18.54208 | 13324 ft | 404 kts | 83° |
| 2026-04-22 14:26 | 59.74811 | 18.59883 | 13676 ft | 416 kts | 83° |
| 2026-04-22 14:26 | 59.74870 | 18.65632 | 14325 ft | 416 kts | 83° |
| 2026-04-22 14:26 | 59.74923 | 18.71347 | 15022 ft | 415 kts | 83° |
| 2026-04-22 14:27 | 59.75261 | 18.76984 | 15571 ft | 411 kts | 70° |
| 2026-04-22 14:27 | 59.76355 | 18.82326 | 15786 ft | 414 kts | 58° |
| 2026-04-22 14:27 | 59.77839 | 18.87072 | 16281 ft | 413 kts | 51° |
| 2026-04-22 14:27 | 59.79568 | 18.91599 | 16881 ft | 411 kts | 47° |
| 2026-04-22 14:28 | 59.81373 | 18.96034 | 17312 ft | 415 kts | 47° |
| 2026-04-22 14:28 | 59.83180 | 19.00550 | 17867 ft | 416 kts | 49° |
| 2026-04-22 14:28 | 59.84917 | 19.05122 | 18208 ft | 423 kts | 50° |
| 2026-04-22 14:28 | 59.86675 | 19.10021 | 18532 ft | 429 kts | 52° |
| 2026-04-22 14:29 | 59.88383 | 19.15001 | 19029 ft | 428 kts | 52° |
| 2026-04-22 14:29 | 59.90034 | 19.19926 | 19577 ft | 427 kts | 52° |
| 2026-04-22 14:29 | 59.91700 | 19.24919 | 20148 ft | 425 kts | 52° |
| 2026-04-22 14:29 | 59.93346 | 19.29831 | 20450 ft | 430 kts | 52° |
| 2026-04-22 14:30 | 59.95060 | 19.34890 | 20588 ft | 438 kts | 52° |
| 2026-04-22 14:30 | 59.96650 | 19.40026 | 20876 ft | 445 kts | 59° |
| 2026-04-22 14:30 | 59.97723 | 19.45931 | 21308 ft | 452 kts | 71° |
| 2026-04-22 14:30 | 59.98469 | 19.52034 | 21707 ft | 453 kts | 71° |
| 2026-04-22 14:31 | 59.99218 | 19.58186 | 21835 ft | 459 kts | 71° |
| 2026-04-22 14:31 | 59.99973 | 19.64396 | 21978 ft | 465 kts | 71° |
| 2026-04-22 14:31 | 60.00736 | 19.70688 | 22233 ft | 467 kts | 71° |
| 2026-04-22 14:31 | 60.01508 | 19.77124 | 22607 ft | 467 kts | 71° |
| 2026-04-22 14:32 | 60.02260 | 19.83433 | 23020 ft | 466 kts | 71° |
| 2026-04-22 14:32 | 60.03008 | 19.89729 | 23429 ft | 465 kts | 71° |
| 2026-04-22 14:32 | 60.03752 | 19.96004 | 23814 ft | 464 kts | 71° |
| 2026-04-22 14:32 | 60.04496 | 20.02300 | 24185 ft | 463 kts | 71° |
| 2026-04-22 14:33 | 60.05241 | 20.08645 | 24574 ft | 462 kts | 71° |
| 2026-04-22 14:33 | 60.05970 | 20.14901 | 24968 ft | 461 kts | 71° |
| 2026-04-22 14:33 | 60.06698 | 20.21165 | 25376 ft | 460 kts | 71° |
| 2026-04-22 14:33 | 60.07424 | 20.27449 | 25789 ft | 459 kts | 71° |
| 2026-04-22 14:34 | 60.08138 | 20.33669 | 26223 ft | 457 kts | 71° |
| 2026-04-22 14:34 | 60.08848 | 20.39857 | 26666 ft | 456 kts | 71° |
| 2026-04-22 14:34 | 60.09561 | 20.46061 | 27148 ft | 454 kts | 71° |
| 2026-04-22 14:34 | 60.10271 | 20.52286 | 27583 ft | 453 kts | 71° |
| 2026-04-22 14:35 | 60.10969 | 20.58416 | 28048 ft | 451 kts | 71° |
| 2026-04-22 14:35 | 60.11663 | 20.64548 | 28522 ft | 450 kts | 71° |
| 2026-04-22 14:35 | 60.12130 | 20.68699 | 28858 ft | 449 kts | 71° |
| 2026-04-22 14:35 | 60.12818 | 20.74848 | 29367 ft | 447 kts | 71° |
| 2026-04-22 14:36 | 60.13477 | 20.80781 | 29849 ft | 445 kts | 71° |
| 2026-04-22 14:36 | 60.14148 | 20.86826 | 30303 ft | 443 kts | 71° |
| 2026-04-22 14:36 | 60.14822 | 20.92907 | 30522 ft | 447 kts | 71° |
| 2026-04-22 14:36 | 60.15499 | 20.98998 | 30638 ft | 452 kts | 71° |
| 2026-04-22 14:37 | 60.16195 | 21.05294 | 30781 ft | 455 kts | 71° |
| 2026-04-22 14:37 | 60.16872 | 21.11486 | 30918 ft | 455 kts | 71° |
| 2026-04-22 14:37 | 60.17545 | 21.17714 | 30942 ft | 455 kts | 71° |
| 2026-04-22 14:38 | 60.18872 | 21.30125 | 30958 ft | 454 kts | 71° |
| 2026-04-22 14:38 | 60.20186 | 21.42553 | 30779 ft | 455 kts | 71° |
| 2026-04-22 14:38 | 60.20845 | 21.48803 | 30364 ft | 444 kts | 71° |
| 2026-04-22 14:39 | 60.21471 | 21.54802 | 30053 ft | 432 kts | 71° |
| 2026-04-22 14:39 | 60.22084 | 21.60682 | 29777 ft | 419 kts | 71° |
| 2026-04-22 14:39 | 60.22677 | 21.66364 | 29492 ft | 409 kts | 70° |
| 2026-04-22 14:40 | 60.23845 | 21.77483 | 28941 ft | 403 kts | 70° |
| 2026-04-22 14:40 | 60.24418 | 21.82945 | 28671 ft | 401 kts | 70° |
| 2026-04-22 14:40 | 60.24992 | 21.88457 | 28391 ft | 400 kts | 70° |
| 2026-04-22 14:40 | 60.25566 | 21.94013 | 28110 ft | 398 kts | 70° |
| 2026-04-22 14:41 | 60.26127 | 21.99510 | 27844 ft | 397 kts | 70° |
| 2026-04-22 14:41 | 60.26690 | 22.05085 | 27575 ft | 396 kts | 70° |
| 2026-04-22 14:41 | 60.27235 | 22.10498 | 27312 ft | 395 kts | 70° |
| 2026-04-22 14:41 | 60.27782 | 22.15930 | 27051 ft | 394 kts | 70° |
| 2026-04-22 14:42 | 60.28330 | 22.21402 | 26792 ft | 393 kts | 70° |
| 2026-04-22 14:42 | 60.28876 | 22.26870 | 26536 ft | 392 kts | 70° |
| 2026-04-22 14:42 | 60.29411 | 22.32238 | 26284 ft | 391 kts | 70° |
| 2026-04-22 14:42 | 60.29945 | 22.37622 | 26036 ft | 390 kts | 70° |
| 2026-04-22 14:43 | 60.30471 | 22.42982 | 25792 ft | 389 kts | 70° |
| 2026-04-22 14:43 | 60.30994 | 22.48343 | 25543 ft | 388 kts | 70° |
| 2026-04-22 14:43 | 60.31532 | 22.53895 | 25293 ft | 387 kts | 70° |
| 2026-04-22 14:43 | 60.32047 | 22.59230 | 25057 ft | 387 kts | 70° |
| 2026-04-22 14:44 | 60.32560 | 22.64546 | 24817 ft | 386 kts | 70° |
| 2026-04-22 14:44 | 60.33069 | 22.69829 | 24585 ft | 385 kts | 70° |
| 2026-04-22 14:44 | 60.33581 | 22.75157 | 24348 ft | 385 kts | 70° |
| 2026-04-22 14:44 | 60.34089 | 22.80465 | 24116 ft | 384 kts | 70° |
| 2026-04-22 14:45 | 60.34592 | 22.85756 | 23887 ft | 383 kts | 70° |
| 2026-04-22 14:45 | 60.34929 | 22.89313 | 23732 ft | 383 kts | 70° |
| 2026-04-22 14:45 | 60.35425 | 22.94584 | 23500 ft | 382 kts | 70° |
| 2026-04-22 14:45 | 60.35919 | 22.99855 | 23244 ft | 381 kts | 70° |
| 2026-04-22 14:46 | 60.36411 | 23.05114 | 22972 ft | 380 kts | 70° |
| 2026-04-22 14:46 | 60.36899 | 23.10357 | 22705 ft | 378 kts | 70° |
| 2026-04-22 14:46 | 60.37384 | 23.15628 | 22438 ft | 377 kts | 70° |
| 2026-04-22 14:46 | 60.37858 | 23.20826 | 22173 ft | 375 kts | 69° |
| 2026-04-22 14:47 | 60.38482 | 23.27694 | 21823 ft | 373 kts | 69° |
| 2026-04-22 14:47 | 60.38795 | 23.31163 | 21650 ft | 372 kts | 69° |
| 2026-04-22 14:47 | 60.39262 | 23.36298 | 21390 ft | 370 kts | 69° |
| 2026-04-22 14:47 | 60.39727 | 23.41404 | 21137 ft | 368 kts | 69° |
| 2026-04-22 14:48 | 60.40196 | 23.46564 | 20881 ft | 367 kts | 69° |
| 2026-04-22 14:48 | 60.40651 | 23.51620 | 20632 ft | 366 kts | 69° |
| 2026-04-22 14:48 | 60.41099 | 23.56649 | 20384 ft | 365 kts | 69° |
| 2026-04-22 14:48 | 60.41545 | 23.61716 | 20134 ft | 364 kts | 69° |
| 2026-04-22 14:49 | 60.41986 | 23.66753 | 19888 ft | 361 kts | 69° |
| 2026-04-22 14:49 | 60.42431 | 23.71864 | 19479 ft | 357 kts | 68° |
| 2026-04-22 14:49 | 60.42861 | 23.76806 | 19022 ft | 355 kts | 68° |
| 2026-04-22 14:49 | 60.43288 | 23.81710 | 18562 ft | 354 kts | 68° |
| 2026-04-22 14:50 | 60.43717 | 23.86618 | 18109 ft | 353 kts | 68° |
| 2026-04-22 14:50 | 60.44103 | 23.91525 | 17608 ft | 354 kts | 70° |
| 2026-04-22 14:50 | 60.44412 | 23.96549 | 17316 ft | 348 kts | 71° |
| 2026-04-22 14:50 | 60.44664 | 24.01358 | 17193 ft | 338 kts | 72° |
| 2026-04-22 14:51 | 60.44898 | 24.06037 | 16929 ft | 331 kts | 72° |
| 2026-04-22 14:51 | 60.45143 | 24.10722 | 16476 ft | 331 kts | 71° |
| 2026-04-22 14:51 | 60.45395 | 24.15382 | 16045 ft | 331 kts | 71° |
| 2026-04-22 14:51 | 60.45655 | 24.20033 | 15760 ft | 326 kts | 71° |
| 2026-04-22 14:52 | 60.45911 | 24.24577 | 15395 ft | 324 kts | 72° |
| 2026-04-22 14:52 | 60.46141 | 24.29173 | 15037 ft | 324 kts | 73° |
| 2026-04-22 14:52 | 60.46333 | 24.33743 | 14687 ft | 324 kts | 74° |
| 2026-04-22 14:52 | 60.46508 | 24.38350 | 14346 ft | 322 kts | 75° |
| 2026-04-22 14:53 | 60.46674 | 24.42853 | 14015 ft | 321 kts | 75° |
| 2026-04-22 14:53 | 60.46835 | 24.47319 | 13676 ft | 320 kts | 75° |
| 2026-04-22 14:53 | 60.46996 | 24.51730 | 13325 ft | 318 kts | 75° |
| 2026-04-22 14:53 | 60.47121 | 24.55169 | 13025 ft | 316 kts | 75° |
| 2026-04-22 14:54 | 60.47276 | 24.59615 | 12666 ft | 316 kts | 77° |
| 2026-04-22 14:54 | 60.47107 | 24.64197 | 12299 ft | 325 kts | 90° |
| 2026-04-22 14:54 | 60.46705 | 24.68738 | 11940 ft | 322 kts | 91° |
| 2026-04-22 14:54 | 60.46301 | 24.73248 | 11381 ft | 318 kts | 91° |
| 2026-04-22 14:55 | 60.45907 | 24.77624 | 10825 ft | 314 kts | 91° |
| 2026-04-22 14:55 | 60.45514 | 24.81993 | 10272 ft | 310 kts | 91° |
| 2026-04-22 14:55 | 60.45132 | 24.86244 | 9738 ft | 305 kts | 91° |
| 2026-04-22 14:55 | 60.45002 | 24.90434 | 9138 ft | 289 kts | 76° |
| 2026-04-22 14:56 | 60.45398 | 24.94373 | 8506 ft | 275 kts | 62° |
| 2026-04-22 14:56 | 60.46100 | 24.97339 | 7893 ft | 265 kts | 50° |
| 2026-04-22 14:56 | 60.47244 | 25.00284 | 7503 ft | 246 kts | 40° |
| 2026-04-22 14:56 | 60.48367 | 25.02787 | 7271 ft | 231 kts | 40° |
| 2026-04-22 14:57 | 60.49427 | 25.05168 | 6877 ft | 224 kts | 41° |
| 2026-04-22 14:57 | 60.50464 | 25.07492 | 6793 ft | 223 kts | 41° |
| 2026-04-22 14:57 | 60.51519 | 25.09838 | 6266 ft | 227 kts | 41° |
| 2026-04-22 14:57 | 60.52568 | 25.12176 | 5765 ft | 226 kts | 41° |
| 2026-04-22 14:58 | 60.53514 | 25.14766 | 5477 ft | 222 kts | 58° |
| 2026-04-22 14:58 | 60.53817 | 25.17744 | 5339 ft | 221 kts | 85° |
| 2026-04-22 14:58 | 60.53386 | 25.20773 | 5136 ft | 223 kts | 117° |
| 2026-04-22 14:58 | 60.52322 | 25.22933 | 4974 ft | 218 kts | 148° |
| 2026-04-22 14:59 | 60.50921 | 25.24062 | 4654 ft | 209 kts | 163° |
| 2026-04-22 14:59 | 60.49566 | 25.24973 | 4208 ft | 199 kts | 164° |
| 2026-04-22 14:59 | 60.48305 | 25.25820 | 4024 ft | 178 kts | 165° |
| 2026-04-22 14:59 | 60.47141 | 25.26090 | 3939 ft | 164 kts | 191° |
| 2026-04-22 15:00 | 60.46069 | 25.25622 | 3878 ft | 155 kts | 211° |
| 2026-04-22 15:00 | 60.45148 | 25.24565 | 3646 ft | 144 kts | 231° |
| 2026-04-22 15:00 | 60.44448 | 25.23135 | 3451 ft | 139 kts | 241° |
| 2026-04-22 15:00 | 60.43790 | 25.21669 | 3242 ft | 139 kts | 241° |
| 2026-04-22 15:01 | 60.43137 | 25.20224 | 3099 ft | 139 kts | 240° |
| 2026-04-22 15:01 | 60.42511 | 25.18843 | 2962 ft | 140 kts | 240° |
| 2026-04-22 15:01 | 60.41784 | 25.17231 | 2772 ft | 139 kts | 241° |
| 2026-04-22 15:01 | 60.41357 | 25.16284 | 2649 ft | 139 kts | 240° |
| 2026-04-22 15:02 | 60.40697 | 25.14819 | 2456 ft | 137 kts | 240° |
| 2026-04-22 15:02 | 60.40051 | 25.13383 | 2273 ft | 136 kts | 240° |
| 2026-04-22 15:02 | 60.39397 | 25.11931 | 2075 ft | 136 kts | 240° |
| 2026-04-22 15:02 | 60.38749 | 25.10490 | 1889 ft | 138 kts | 240° |
| 2026-04-22 15:03 | 60.38089 | 25.09027 | 1693 ft | 137 kts | 239° |
| 2026-04-22 15:03 | 60.37446 | 25.07603 | 1510 ft | 136 kts | 238° |
| 2026-04-22 15:03 | 60.36807 | 25.06185 | 1322 ft | 137 kts | 239° |
| 2026-04-22 15:03 | 60.36163 | 25.04767 | 1147 ft | 136 kts | 238° |
| 2026-04-22 15:04 | 60.35536 | 25.03384 | 942 ft | 131 kts | 238° |
| 2026-04-22 15:04 | 60.34933 | 25.02010 | 757 ft | 130 kts | 238° |
| 2026-04-22 15:04 | 60.34330 | 25.00672 | 584 ft | 129 kts | 237° |
| 2026-04-22 15:04 | 60.33723 | 24.99360 | 413 ft | 127 kts | 238° |
| 2026-04-22 15:05 | 60.33124 | 24.98038 | 239 ft | 125 kts | 237° |
| 2026-04-22 15:05 | 60.32564 | 24.96787 | 167 ft | 106 kts | 229° |
| 2026-04-22 15:05 | 60.32132 | 24.95851 | 165 ft | 67 kts | 227° |
| 2026-04-22 15:05 | 60.31867 | 24.95250 | 163 ft | 53 kts | 226° |
| 2026-04-22 15:06 | 60.31629 | 24.94741 | 161 ft | 47 kts | 228° |
| 2026-04-22 15:06 | 60.31425 | 24.94289 | 162 ft | 38 kts | 226° |
| 2026-04-22 15:06 | 60.31251 | 24.93909 | 161 ft | 36 kts | 227° |
| 2026-04-22 15:06 | 60.31087 | 24.93756 | 161 ft | 26 kts | 155° |
| 2026-04-22 15:07 | 60.31008 | 24.94005 | 162 ft | 20 kts | 130° |
| 2026-04-22 15:07 | 60.31018 | 24.94231 | 162 ft | 17 kts | 41° |
| 2026-04-22 15:07 | 60.31106 | 24.94394 | 162 ft | 17 kts | 45° |
| 2026-04-22 15:07 | 60.31103 | 24.94441 | 162 ft | 1 kts | 188° |
| 2026-04-22 15:08 | 60.31066 | 24.94343 | 162 ft | 15 kts | 237° |
| 2026-04-22 15:08 | 60.30994 | 24.94195 | 162 ft | 14 kts | 178° |
| 2026-04-22 15:08 | 60.30915 | 24.94275 | 162 ft | 0 kts | 150° |